Rickmers Dalian — V7FS3 — position and weather

sailwx.info

Track history (hours):
 
Tides and Currents Weather Stations Pressure Air Temp Water Temp Dewpoint Dewpoint Depression Visibility Wind Speed Wind Dir Waves Ship Positions

Rickmers Dalian

Last reported at 2015-May-06 02:33 UTC. Time now 2015-May-06 03:25 UTC.
Position N 44°12' E 009°02'.

Length 193 m; beam 27.8 m; draft 11.2 m.

Type: Ship. MMSI: 538090156.

Date/timePositionNaut miles runAvg speedWind from/ knotsBaromVisibWave heightAir tempDewpointWater temp
2015-May-06 02:33N 44°12' E 009°02'1313.1
2015-May-06 01:33N 44°24' E 008°55'1 1.2
2015-May-06 00:31N 44°24' E 008°53'0 0.0
2015-May-05 23:31N 44°24' E 008°53'0 0.0
2015-May-05 22:28N 44°24' E 008°53'0 0.0
2015-May-05 21:28N 44°24' E 008°53'0 0.0
2015-May-05 20:28N 44°24' E 008°53'0 0.0
2015-May-05 19:31N 44°24' E 008°53'0 0.0
2015-May-05 18:31N 44°24' E 008°53'0 0.0
2015-May-05 17:31N 44°24' E 008°53'0 0.0
2015-May-05 16:28N 44°24' E 008°53'0 0.0
2015-May-05 15:22N 44°24' E 008°53'0 0.0
2015-May-05 14:28N 44°24' E 008°53'0 0.0
2015-May-05 13:28N 44°24' E 008°53'0 0.0
2015-May-05 12:31N 44°24' E 008°53'0 0.0
2015-May-05 11:31N 44°24' E 008°53'0 0.0
2015-May-05 10:22N 44°24' E 008°53'0 0.3
2015-May-05 09:33N 44°24' E 008°53'6 5.6
2015-May-05 08:33N 44°19' E 008°57'1515.5
2015-May-05 07:33N 44°08' E 008°42'1515.3
2015-May-05 06:33N 43°57' E 008°27'1614.9
2015-May-05 05:30N 43°46' E 008°12'3015.5
2015-May-05 03:32N 43°25' E 007°42'8014.7
2015-May-04 22:04N 42°32' E 006°19'714.3
2015-May-04 21:33N 42°27' E 006°12'1515.0
2015-May-04 20:33N 42°17' E 005°57'1515.3
2015-May-04 19:34N 42°07' E 005°41'1515.2
2015-May-04 18:33N 41°57' E 005°26'1715.0
2015-May-04 17:27N 41°46' E 005°09'3015.7
2015-May-04 15:32N 41°26' E 004°39'5416.4
2015-May-04 12:15N 40°51' E 003°45'1115.8
2015-May-04 11:32N 40°43' E 003°34'1515.6
2015-May-04 10:33N 40°33' E 003°19'1615.6
2015-May-04 09:33N 40°23' E 003°03'1616.3
2015-May-04 08:33N 40°12' E 002°47'1616.6
2015-May-04 07:33N 40°01' E 002°31'1716.5
2015-May-04 06:33N 39°51' E 002°15'1616.3
2015-May-04 05:33N 39°40' E 001°59'1716.7
2015-May-04 04:33N 39°29' E 001°42'1616.2
2015-May-04 03:33N 39°18' E 001°27'1616.3
2015-May-04 02:33N 39°07' E 001°11'3416.4
2015-May-04 00:27N 38°42' E 000°41'3116.5
2015-May-03 22:33N 38°17' E 000°16'1616.1
2015-May-03 21:33N 38°05' E 000°03'1616.1
2015-May-03 20:33N 37°53' W 000°10'1616.3
2015-May-03 19:33N 37°40' W 000°23'1616.0
2015-May-03 18:33N 37°29' W 000°37'1616.1
2015-May-03 17:33N 37°18' W 000°52'1616.1
2015-May-03 16:33N 37°07' W 001°08'1616.2
2015-May-03 15:32N 36°56' W 001°23'1616.0
2015-May-03 14:33N 36°46' W 001°38'3716.0
2015-May-03 12:14N 36°22' W 002°13'1116.1
2015-May-03 11:33N 36°21' W 002°27'1616.3
2015-May-03 10:33N 36°18' W 002°47'3916.1
2015-May-03 08:09N 36°12' W 003°34'7716.7
2015-May-03 03:32N 36°00' W 005°09'14716.3
2015-May-02 18:32N 36°16' W 008°09'1616.3
2015-May-02 17:33N 36°20' W 008°29'1616.0
2015-May-02 16:33N 36°24' W 008°48'1615.6
2015-May-02 15:32N 36°28' W 009°07'1515.3
2015-May-02 14:33N 36°33' W 009°25'1615.7
2015-May-02 13:33N 36°45' W 009°37'1616.3
2015-May-02 12:33N 37°01' W 009°42'1616.5
2015-May-02 11:34N 37°17' W 009°47'1616.4
2015-May-02 10:33N 37°33' W 009°51'1616.3
2015-May-02 09:33N 37°49' W 009°56'1616.2
2015-May-02 08:33N 38°05' W 010°01'1616.0
2015-May-02 07:33N 38°20' W 010°06'1616.1
2015-May-02 06:33N 38°36' W 010°11'1615.8
2015-May-02 05:33N 38°52' W 010°12'1615.9
2015-May-02 04:33N 39°08' W 010°12'1615.6
2015-May-02 03:33N 39°23' W 010°12'1615.6
2015-May-02 02:32N 39°39' W 010°12'68514.2
2015-Apr-30 02:23N 49°55' W 003°09'1315.0
2015-Apr-30 01:33N 50°01' W 002°51'5316.7
2015-Apr-29 22:23N 50°14' W 001°32'1716.1
2015-Apr-29 21:20N 50°19' W 001°07'1215.2
2015-Apr-29 20:33N 50°22' W 000°48'2913.9
2015-Apr-29 18:29N 50°30' W 000°05'1413.4
2015-Apr-29 17:27N 50°33' E 000°16'1213.6
2015-Apr-29 16:33N 50°37' E 000°35'1414.3
2015-Apr-29 15:33N 50°46' E 000°52'1515.1
2015-Apr-29 14:33N 50°55' E 001°11'1514.8
2015-Apr-29 13:34N 51°05' E 001°28'1413.6
2015-Apr-29 12:34N 51°13' E 001°46'1313.3
2015-Apr-29 11:33N 51°24' E 001°56'1312.9
2015-Apr-29 10:33N 51°35' E 002°08'12815.2
2015-Apr-29 02:07N 53°12' E 004°25'914.9
2015-Apr-29 01:32N 53°20' E 004°31'1313.6
2015-Apr-29 00:33N 53°30' E 004°44'1515.2
2015-Apr-28 23:34N 53°35' E 005°09'1616.0
2015-Apr-28 22:34N 53°40' E 005°35'1716.4
2015-Apr-28 21:33N 53°46' E 006°01'4418.4
2015-Apr-28 19:10N 53°57' E 007°13'3 5.7
2015-Apr-28 18:33N 53°58' E 007°18'1515.2
2015-Apr-28 17:33N 54°02' E 007°43'1514.8
2015-Apr-28 16:33N 54°01' E 008°09'1413.7
2015-Apr-28 15:33N 53°58' E 008°31'1514.5
2015-Apr-28 14:34N 53°50' E 008°52'1514.8
2015-Apr-28 13:34N 53°52' E 009°17'1615.9
2015-Apr-28 12:33N 53°39' E 009°31'1312.6
2015-Apr-28 11:33N 53°33' E 009°50'6 5.7
2015-Apr-28 10:33N 53°30' E 009°59'1 0.7
2015-Apr-28 09:34N 53°29' E 009°59'0 0.0
2015-Apr-28 08:33N 53°29' E 009°59'0 0.0
2015-Apr-28 07:28N 53°29' E 009°59'0 0.0
2015-Apr-28 06:33N 53°29' E 009°59'0 0.0
2015-Apr-28 05:17N 53°29' E 009°59'0 0.0
2015-Apr-28 04:26N 53°29' E 009°59'0 0.0
2015-Apr-28 03:11N 53°29' E 009°59'0 0.0
2015-Apr-28 02:28N 53°29' E 009°59'0 0.0
2015-Apr-28 01:27N 53°29' E 009°59'0 0.0
2015-Apr-28 00:33N 53°29' E 009°59'0 0.0
2015-Apr-27 23:33N 53°29' E 009°59'0 0.0
2015-Apr-27 22:33N 53°29' E 009°59'0 0.0
2015-Apr-27 21:33N 53°29' E 009°59'0 0.0
2015-Apr-27 20:33N 53°29' E 009°59'0 0.0
2015-Apr-27 19:33N 53°29' E 009°59'0 0.0
2015-Apr-27 18:27N 53°29' E 009°59'0 0.0
2015-Apr-27 17:33N 53°29' E 009°59'0 0.0
2015-Apr-27 16:33N 53°29' E 009°59'0 0.0
2015-Apr-27 15:27N 53°29' E 009°59'0 0.0
2015-Apr-27 14:34N 53°29' E 009°59'0 0.0
2015-Apr-27 13:33N 53°29' E 009°59'0 0.0
2015-Apr-27 12:33N 53°29' E 009°59'0 0.0
2015-Apr-27 11:33N 53°29' E 009°59'0 0.0
2015-Apr-27 10:33N 53°29' E 009°59'0 0.0
2015-Apr-27 09:33N 53°29' E 009°59'0 0.0
2015-Apr-27 08:34N 53°29' E 009°59'0 0.0
2015-Apr-27 07:30N 53°29' E 009°59'0 0.0
2015-Apr-27 06:33N 53°29' E 009°59'0 0.0
2015-Apr-27 05:33N 53°29' E 009°59'0 0.0
2015-Apr-27 04:29N 53°29' E 009°59'0 0.0
2015-Apr-27 03:29N 53°29' E 009°59'0 0.0
2015-Apr-27 02:17N 53°29' E 009°59'0 0.0
2015-Apr-27 01:28N 53°29' E 009°59'0 0.0
2015-Apr-27 00:33N 53°29' E 009°59'0 0.0
2015-Apr-26 23:33N 53°29' E 009°59'0 0.0
2015-Apr-26 22:33N 53°29' E 009°59'0 0.0
2015-Apr-26 21:33N 53°29' E 009°59'0 0.0
2015-Apr-26 20:33N 53°29' E 009°59'0 0.0
2015-Apr-26 19:33N 53°29' E 009°59'0 0.0
2015-Apr-26 18:24N 53°29' E 009°59'0 0.0
2015-Apr-26 17:33N 53°29' E 009°59'0 0.0
2015-Apr-26 16:33N 53°29' E 009°59'0 0.0
2015-Apr-26 15:33N 53°29' E 009°59'0 0.0
2015-Apr-26 14:33N 53°29' E 009°59'0 0.0
2015-Apr-26 13:33N 53°29' E 009°59'0 0.0
2015-Apr-26 12:33N 53°29' E 009°59'0 0.0
2015-Apr-26 11:33N 53°29' E 009°59'0 0.0
2015-Apr-26 10:33N 53°29' E 009°59'0 0.0
2015-Apr-26 09:33N 53°29' E 009°59'0 0.0
2015-Apr-26 08:33N 53°29' E 009°59'0 0.0
2015-Apr-26 07:33N 53°29' E 009°59'0 0.0
2015-Apr-26 06:33N 53°29' E 009°59'0 0.0
2015-Apr-26 05:33N 53°29' E 009°59'0 0.0
2015-Apr-26 04:11N 53°29' E 009°59'0 0.0
2015-Apr-26 03:23N 53°29' E 009°59'  
Track history (hours):
 
Tides and Currents Weather Stations Pressure Air Temp Water Temp Dewpoint Dewpoint Depression Visibility Wind Speed Wind Dir Waves Ship Positions

Rickmers Dalian

Last reported at 2015-May-06 02:33 UTC. Time now 2015-May-06 03:25 UTC.
Position N 44°12' E 009°02'.

Length 193 m; beam 27.8 m; draft 11.2 m.

Type: Ship. MMSI: 538090156.

Date/timePositionNaut miles runAvg speedWind from/ knotsBaromVisibWave heightAir tempDewpointWater temp
2015-May-06 02:33N 44°12' E 009°02'1313.1
2015-May-06 01:33N 44°24' E 008°55'1 1.2
2015-May-06 00:31N 44°24' E 008°53'0 0.0
2015-May-05 23:31N 44°24' E 008°53'0 0.0
2015-May-05 22:28N 44°24' E 008°53'0 0.0
2015-May-05 21:28N 44°24' E 008°53'0 0.0
2015-May-05 20:28N 44°24' E 008°53'0 0.0
2015-May-05 19:31N 44°24' E 008°53'0 0.0
2015-May-05 18:31N 44°24' E 008°53'0 0.0
2015-May-05 17:31N 44°24' E 008°53'0 0.0
2015-May-05 16:28N 44°24' E 008°53'0 0.0
2015-May-05 15:22N 44°24' E 008°53'0 0.0
2015-May-05 14:28N 44°24' E 008°53'0 0.0
2015-May-05 13:28N 44°24' E 008°53'0 0.0
2015-May-05 12:31N 44°24' E 008°53'0 0.0
2015-May-05 11:31N 44°24' E 008°53'0 0.0
2015-May-05 10:22N 44°24' E 008°53'0 0.3
2015-May-05 09:33N 44°24' E 008°53'6 5.6
2015-May-05 08:33N 44°19' E 008°57'1515.5
2015-May-05 07:33N 44°08' E 008°42'1515.3
2015-May-05 06:33N 43°57' E 008°27'1614.9
2015-May-05 05:30N 43°46' E 008°12'3015.5
2015-May-05 03:32N 43°25' E 007°42'8014.7
2015-May-04 22:04N 42°32' E 006°19'714.3
2015-May-04 21:33N 42°27' E 006°12'1515.0
2015-May-04 20:33N 42°17' E 005°57'1515.3
2015-May-04 19:34N 42°07' E 005°41'1515.2
2015-May-04 18:33N 41°57' E 005°26'1715.0
2015-May-04 17:27N 41°46' E 005°09'3015.7
2015-May-04 15:32N 41°26' E 004°39'5416.4
2015-May-04 12:15N 40°51' E 003°45'1115.8
2015-May-04 11:32N 40°43' E 003°34'1515.6
2015-May-04 10:33N 40°33' E 003°19'1615.6
2015-May-04 09:33N 40°23' E 003°03'1616.3
2015-May-04 08:33N 40°12' E 002°47'1616.6
2015-May-04 07:33N 40°01' E 002°31'1716.5
2015-May-04 06:33N 39°51' E 002°15'1616.3
2015-May-04 05:33N 39°40' E 001°59'1716.7
2015-May-04 04:33N 39°29' E 001°42'1616.2
2015-May-04 03:33N 39°18' E 001°27'1616.3
2015-May-04 02:33N 39°07' E 001°11'3416.4
2015-May-04 00:27N 38°42' E 000°41'3116.5
2015-May-03 22:33N 38°17' E 000°16'1616.1
2015-May-03 21:33N 38°05' E 000°03'1616.1
2015-May-03 20:33N 37°53' W 000°10'1616.3
2015-May-03 19:33N 37°40' W 000°23'1616.0
2015-May-03 18:33N 37°29' W 000°37'1616.1
2015-May-03 17:33N 37°18' W 000°52'1616.1
2015-May-03 16:33N 37°07' W 001°08'1616.2
2015-May-03 15:32N 36°56' W 001°23'1616.0
2015-May-03 14:33N 36°46' W 001°38'3716.0
2015-May-03 12:14N 36°22' W 002°13'1116.1
2015-May-03 11:33N 36°21' W 002°27'1616.3
2015-May-03 10:33N 36°18' W 002°47'3916.1
2015-May-03 08:09N 36°12' W 003°34'7716.7
2015-May-03 03:32N 36°00' W 005°09'14716.3
2015-May-02 18:32N 36°16' W 008°09'1616.3
2015-May-02 17:33N 36°20' W 008°29'1616.0
2015-May-02 16:33N 36°24' W 008°48'1615.6
2015-May-02 15:32N 36°28' W 009°07'1515.3
2015-May-02 14:33N 36°33' W 009°25'1615.7
2015-May-02 13:33N 36°45' W 009°37'1616.3
2015-May-02 12:33N 37°01' W 009°42'1616.5
2015-May-02 11:34N 37°17' W 009°47'1616.4
2015-May-02 10:33N 37°33' W 009°51'1616.3
2015-May-02 09:33N 37°49' W 009°56'1616.2
2015-May-02 08:33N 38°05' W 010°01'1616.0
2015-May-02 07:33N 38°20' W 010°06'1616.1
2015-May-02 06:33N 38°36' W 010°11'1615.8
2015-May-02 05:33N 38°52' W 010°12'1615.9
2015-May-02 04:33N 39°08' W 010°12'1615.6
2015-May-02 03:33N 39°23' W 010°12'1615.6
2015-May-02 02:32N 39°39' W 010°12'68514.2
2015-Apr-30 02:23N 49°55' W 003°09'1315.0
2015-Apr-30 01:33N 50°01' W 002°51'5316.7
2015-Apr-29 22:23N 50°14' W 001°32'1716.1
2015-Apr-29 21:20N 50°19' W 001°07'1215.2
2015-Apr-29 20:33N 50°22' W 000°48'2913.9
2015-Apr-29 18:29N 50°30' W 000°05'1413.4
2015-Apr-29 17:27N 50°33' E 000°16'1213.6
2015-Apr-29 16:33N 50°37' E 000°35'1414.3
2015-Apr-29 15:33N 50°46' E 000°52'1515.1
2015-Apr-29 14:33N 50°55' E 001°11'1514.8
2015-Apr-29 13:34N 51°05' E 001°28'1413.6
2015-Apr-29 12:34N 51°13' E 001°46'1313.3
2015-Apr-29 11:33N 51°24' E 001°56'1312.9
2015-Apr-29 10:33N 51°35' E 002°08'12815.2
2015-Apr-29 02:07N 53°12' E 004°25'914.9
2015-Apr-29 01:32N 53°20' E 004°31'1313.6
2015-Apr-29 00:33N 53°30' E 004°44'1515.2
2015-Apr-28 23:34N 53°35' E 005°09'1616.0
2015-Apr-28 22:34N 53°40' E 005°35'1716.4
2015-Apr-28 21:33N 53°46' E 006°01'4418.4
2015-Apr-28 19:10N 53°57' E 007°13'3 5.7
2015-Apr-28 18:33N 53°58' E 007°18'1515.2
2015-Apr-28 17:33N 54°02' E 007°43'1514.8
2015-Apr-28 16:33N 54°01' E 008°09'1413.7
2015-Apr-28 15:33N 53°58' E 008°31'1514.5
2015-Apr-28 14:34N 53°50' E 008°52'1514.8
2015-Apr-28 13:34N 53°52' E 009°17'1615.9
2015-Apr-28 12:33N 53°39' E 009°31'1312.6
2015-Apr-28 11:33N 53°33' E 009°50'6 5.7
2015-Apr-28 10:33N 53°30' E 009°59'1 0.7
2015-Apr-28 09:34N 53°29' E 009°59'0 0.0
2015-Apr-28 08:33N 53°29' E 009°59'0 0.0
2015-Apr-28 07:28N 53°29' E 009°59'0 0.0
2015-Apr-28 06:33N 53°29' E 009°59'0 0.0
2015-Apr-28 05:17N 53°29' E 009°59'0 0.0
2015-Apr-28 04:26N 53°29' E 009°59'0 0.0
2015-Apr-28 03:11N 53°29' E 009°59'0 0.0
2015-Apr-28 02:28N 53°29' E 009°59'0 0.0
2015-Apr-28 01:27N 53°29' E 009°59'0 0.0
2015-Apr-28 00:33N 53°29' E 009°59'0 0.0
2015-Apr-27 23:33N 53°29' E 009°59'0 0.0
2015-Apr-27 22:33N 53°29' E 009°59'0 0.0
2015-Apr-27 21:33N 53°29' E 009°59'0 0.0
2015-Apr-27 20:33N 53°29' E 009°59'0 0.0
2015-Apr-27 19:33N 53°29' E 009°59'0 0.0
2015-Apr-27 18:27N 53°29' E 009°59'0 0.0
2015-Apr-27 17:33N 53°29' E 009°59'0 0.0
2015-Apr-27 16:33N 53°29' E 009°59'0 0.0
2015-Apr-27 15:27N 53°29' E 009°59'0 0.0
2015-Apr-27 14:34N 53°29' E 009°59'0 0.0
2015-Apr-27 13:33N 53°29' E 009°59'0 0.0
2015-Apr-27 12:33N 53°29' E 009°59'0 0.0
2015-Apr-27 11:33N 53°29' E 009°59'0 0.0
2015-Apr-27 10:33N 53°29' E 009°59'0 0.0
2015-Apr-27 09:33N 53°29' E 009°59'0 0.0
2015-Apr-27 08:34N 53°29' E 009°59'0 0.0
2015-Apr-27 07:30N 53°29' E 009°59'0 0.0
2015-Apr-27 06:33N 53°29' E 009°59'0 0.0
2015-Apr-27 05:33N 53°29' E 009°59'0 0.0
2015-Apr-27 04:29N 53°29' E 009°59'0 0.0
2015-Apr-27 03:29N 53°29' E 009°59'0 0.0
2015-Apr-27 02:17N 53°29' E 009°59'0 0.0
2015-Apr-27 01:28N 53°29' E 009°59'0 0.0
2015-Apr-27 00:33N 53°29' E 009°59'0 0.0
2015-Apr-26 23:33N 53°29' E 009°59'0 0.0
2015-Apr-26 22:33N 53°29' E 009°59'0 0.0
2015-Apr-26 21:33N 53°29' E 009°59'0 0.0
2015-Apr-26 20:33N 53°29' E 009°59'0 0.0
2015-Apr-26 19:33N 53°29' E 009°59'0 0.0
2015-Apr-26 18:24N 53°29' E 009°59'0 0.0
2015-Apr-26 17:33N 53°29' E 009°59'0 0.0
2015-Apr-26 16:33N 53°29' E 009°59'0 0.0
2015-Apr-26 15:33N 53°29' E 009°59'0 0.0
2015-Apr-26 14:33N 53°29' E 009°59'0 0.0
2015-Apr-26 13:33N 53°29' E 009°59'0 0.0
2015-Apr-26 12:33N 53°29' E 009°59'0 0.0
2015-Apr-26 11:33N 53°29' E 009°59'0 0.0
2015-Apr-26 10:33N 53°29' E 009°59'0 0.0
2015-Apr-26 09:33N 53°29' E 009°59'0 0.0
2015-Apr-26 08:33N 53°29' E 009°59'0 0.0
2015-Apr-26 07:33N 53°29' E 009°59'0 0.0
2015-Apr-26 06:33N 53°29' E 009°59'0 0.0
2015-Apr-26 05:33N 53°29' E 009°59'0 0.0
2015-Apr-26 04:11N 53°29' E 009°59'0 0.0
2015-Apr-26 03:23N 53°29' E 009°59'  

Dump ship's entire track history